createdAt,value
2023-04-09T00:01:05.055Z,99789.63
2023-04-09T00:03:51.795Z,99774.72
2023-04-09T00:06:38.252Z,99729.84
2023-04-09T00:09:24.647Z,99782.78
2023-04-09T00:12:11.512Z,99713.63
2023-04-09T00:14:57.897Z,99729.31
2023-04-09T00:17:44.185Z,99733.44
2023-04-09T00:20:30.638Z,99767.97
2023-04-09T00:23:16.930Z,99759.22
2023-04-09T00:26:03.388Z,99752.13
2023-04-09T00:28:49.913Z,99731.56
2023-04-09T00:31:36.283Z,99774.19
2023-04-09T00:34:22.779Z,99709.41
2023-04-09T00:37:09.287Z,99718.41
2023-04-09T00:39:56.030Z,99709.19
2023-04-09T00:42:42.545Z,99720.59
2023-04-09T00:45:28.773Z,99703.22
2023-04-09T00:48:17.046Z,99732.13
2023-04-09T00:51:03.628Z,99762.47
2023-04-09T00:53:50.769Z,99754.38
2023-04-09T00:56:38.176Z,99756.41
2023-04-09T00:59:25.859Z,99757.94
2023-04-09T01:02:12.568Z,99775.69
2023-04-09T01:04:59.690Z,99755.06
2023-04-09T01:08:08.746Z,99755.69
2023-04-09T01:11:11.033Z,99775.50
2023-04-09T01:14:32.895Z,99769.47
2023-04-09T01:17:31.104Z,99730.69
2023-04-09T01:20:21.646Z,99774.88
2023-04-09T01:23:18.882Z,99773.00
2023-04-09T01:26:17.174Z,99771.50
2023-04-09T01:29:09.498Z,99732.63
2023-04-09T01:31:56.142Z,99718.97
2023-04-09T01:34:44.941Z,99749.03
2023-04-09T01:37:32.511Z,99736.25
2023-04-09T01:40:19.148Z,99757.19
2023-04-09T01:43:06.865Z,99732.88
2023-04-09T01:45:54.304Z,99721.53
2023-04-09T01:48:41.016Z,99766.91
2023-04-09T01:51:27.934Z,99715.66
2023-04-09T01:54:16.071Z,99726.06
2023-04-09T01:57:02.337Z,99759.91
2023-04-09T01:59:48.722Z,99769.50
2023-04-09T02:02:49.306Z,99704.69
2023-04-09T02:05:39.815Z,99755.78
2023-04-09T02:08:28.357Z,99763.41
2023-04-09T02:11:16.283Z,99727.78
2023-04-09T02:14:04.345Z,99703.88
2023-04-09T02:16:51.104Z,99720.75
2023-04-09T02:19:41.178Z,99757.63
2023-04-09T02:22:27.516Z,99751.69
2023-04-09T02:25:14.090Z,99760.66
2023-04-09T02:28:00.650Z,99766.16
2023-04-09T02:30:46.830Z,99755.19
2023-04-09T02:33:33.413Z,99716.41
2023-04-09T02:36:19.866Z,99733.47
2023-04-09T02:39:06.409Z,99717.91
2023-04-09T02:41:52.848Z,99735.16
2023-04-09T02:44:39.103Z,99715.53
2023-04-09T02:47:27.168Z,99761.88
2023-04-09T02:50:13.789Z,99757.44
2023-04-09T02:53:06.685Z,99750.56
2023-04-09T02:55:52.819Z,99761.78
2023-04-09T02:58:38.978Z,99755.31
2023-04-09T03:01:25.428Z,99736.22
2023-04-09T03:04:11.788Z,99754.81
2023-04-09T03:06:58.098Z,99738.66
2023-04-09T03:09:44.358Z,99753.16
2023-04-09T03:12:30.530Z,99747.34
2023-04-09T03:15:17.162Z,99674.75
2023-04-09T03:18:03.453Z,99729.84
2023-04-09T03:20:50.453Z,99749.28
2023-04-09T03:23:37.208Z,99743.00
2023-04-09T03:26:25.340Z,99743.31
2023-04-09T03:29:11.778Z,99742.09
2023-04-09T03:31:58.552Z,99713.47
2023-04-09T03:34:44.970Z,99710.97
2023-04-09T03:37:31.472Z,99722.88
2023-04-09T03:40:17.990Z,99727.81
2023-04-09T03:43:04.546Z,99743.88
2023-04-09T03:45:54.592Z,99736.75
2023-04-09T03:48:46.189Z,99704.59
2023-04-09T03:51:33.081Z,99719.78
2023-04-09T03:54:20.756Z,99739.72
2023-04-09T03:57:07.295Z,99712.69
2023-04-09T03:59:57.580Z,99743.03
2023-04-09T04:02:46.243Z,99744.22
2023-04-09T04:05:32.898Z,99740.84
2023-04-09T04:08:22.661Z,99741.63
2023-04-09T04:11:09.020Z,99740.94
2023-04-09T04:13:56.132Z,99740.94
2023-04-09T04:16:44.133Z,99734.13
2023-04-09T04:19:33.337Z,99723.00
2023-04-09T04:22:19.953Z,99751.72
2023-04-09T04:25:10.770Z,99749.41
2023-04-09T04:27:57.919Z,99762.00
2023-04-09T04:30:51.537Z,99730.66
2023-04-09T04:33:40.550Z,99756.41
2023-04-09T04:36:31.036Z,99743.34
2023-04-09T04:39:17.155Z,99749.03
2023-04-09T04:42:12.328Z,99734.63
2023-04-09T04:44:59.598Z,99763.34
2023-04-09T04:47:55.842Z,99758.22
2023-04-09T04:50:41.964Z,99760.72
2023-04-09T04:53:29.347Z,99756.88
2023-04-09T04:56:18.613Z,99751.97
2023-04-09T04:59:22.867Z,99731.19
2023-04-09T05:02:19.401Z,99708.13
2023-04-09T05:05:17.655Z,99747.28
2023-04-09T05:08:09.985Z,99736.25
2023-04-09T05:10:57.267Z,99750.16
2023-04-09T05:13:51.604Z,99741.06
2023-04-09T05:16:39.518Z,99720.75
2023-04-09T05:19:27.149Z,99734.09
2023-04-09T05:22:19.792Z,99742.19
2023-04-09T05:25:07.260Z,99773.31
2023-04-09T05:27:57.620Z,99742.66
2023-04-09T05:30:48.167Z,99749.78
2023-04-09T05:33:38.368Z,99768.22
2023-04-09T05:36:32.272Z,99751.00
2023-04-09T05:39:19.538Z,99764.97
2023-04-09T05:42:06.240Z,99763.34
2023-04-09T05:45:17.954Z,99780.50
2023-04-09T05:48:09.803Z,99751.00
2023-04-09T05:50:59.698Z,99732.00
2023-04-09T05:53:48.216Z,99745.75
2023-04-09T05:56:34.435Z,99770.38
2023-04-09T05:59:20.912Z,99759.09
2023-04-09T06:02:07.247Z,99791.63
2023-04-09T06:04:53.640Z,99785.41
2023-04-09T06:07:40.795Z,99767.47
2023-04-09T06:10:27.293Z,99793.16
2023-04-09T06:13:13.860Z,99779.13
2023-04-09T06:16:04.275Z,99774.00
2023-04-09T06:18:54.902Z,99752.16
2023-04-09T06:21:41.327Z,99770.63
2023-04-09T06:24:27.659Z,99760.94
2023-04-09T06:27:14.219Z,99731.59
2023-04-09T06:30:01.030Z,99784.13
2023-04-09T06:32:54.256Z,99762.88
2023-04-09T06:35:42.370Z,99744.41
2023-04-09T06:38:28.705Z,99756.22
2023-04-09T06:41:15.436Z,99776.31
2023-04-09T06:44:01.770Z,99756.34
2023-04-09T06:46:48.070Z,99776.78
2023-04-09T06:49:34.812Z,99753.44
2023-04-09T06:52:21.111Z,99797.91
2023-04-09T06:55:07.853Z,99802.97
2023-04-09T06:57:54.374Z,99788.00
2023-04-09T07:00:41.047Z,99741.06
2023-04-09T07:03:27.857Z,99776.16
2023-04-09T07:06:14.851Z,99773.03
2023-04-09T07:09:01.364Z,99800.13
2023-04-09T07:11:47.785Z,99784.78
2023-04-09T07:14:34.200Z,99799.72
2023-04-09T07:17:20.529Z,99795.66
2023-04-09T07:20:07.240Z,99771.28
2023-04-09T07:22:53.688Z,99800.81
2023-04-09T07:25:40.632Z,99769.50
2023-04-09T07:28:27.128Z,99804.16
2023-04-09T07:31:14.300Z,99804.19
2023-04-09T07:34:00.905Z,99768.00
2023-04-09T07:36:47.425Z,99794.34
2023-04-09T07:39:34.029Z,99799.56
2023-04-09T07:42:20.756Z,99795.19
2023-04-09T07:45:07.948Z,99779.09
2023-04-09T07:47:54.804Z,99796.75
2023-04-09T07:50:41.256Z,99784.00
2023-04-09T07:53:27.624Z,99752.16
2023-04-09T07:56:14.078Z,99794.00
2023-04-09T07:59:00.205Z,99791.38
2023-04-09T08:01:46.984Z,99799.44
2023-04-09T08:04:33.771Z,99785.59
2023-04-09T08:07:20.246Z,99788.97
2023-04-09T08:10:07.095Z,99785.59
2023-04-09T08:12:53.576Z,99812.41
2023-04-09T08:15:39.785Z,99783.38
2023-04-09T08:18:25.906Z,99802.94
2023-04-09T08:21:12.765Z,99815.47
2023-04-09T08:24:04.344Z,99788.03
2023-04-09T08:26:51.113Z,99815.06
2023-04-09T08:29:38.639Z,99791.38
2023-04-09T08:32:24.931Z,99801.34
2023-04-09T08:35:11.424Z,99755.88
2023-04-09T08:37:57.930Z,99779.44
2023-04-09T08:40:44.028Z,99791.25
2023-04-09T08:43:47.315Z,99811.88
2023-04-09T08:46:39.069Z,99771.03
2023-04-09T08:49:25.547Z,99785.38
2023-04-09T08:52:12.199Z,99777.03
2023-04-09T08:54:58.475Z,99795.22
2023-04-09T08:57:44.717Z,99764.53
2023-04-09T09:00:31.030Z,99806.97
2023-04-09T09:03:17.596Z,99792.38
2023-04-09T09:06:04.324Z,99804.28
2023-04-09T09:09:00.722Z,99786.09
2023-04-09T09:11:50.067Z,99796.66
2023-04-09T09:14:36.401Z,99791.56
2023-04-09T09:17:22.555Z,99795.16
2023-04-09T09:20:22.260Z,99800.44
2023-04-09T09:23:08.885Z,99800.53
2023-04-09T09:25:55.438Z,99780.63
2023-04-09T09:28:42.688Z,99794.38
2023-04-09T09:31:28.890Z,99792.78
2023-04-09T09:34:20.249Z,99812.06
2023-04-09T09:37:27.019Z,99796.44
2023-04-09T09:40:27.840Z,99786.22
2023-04-09T09:43:14.681Z,99766.53
2023-04-09T09:46:02.368Z,99776.97
2023-04-09T09:48:49.694Z,99764.84
2023-04-09T09:51:39.295Z,99744.06
2023-04-09T09:54:27.365Z,99806.44
2023-04-09T09:57:17.897Z,99796.06
2023-04-09T10:00:05.780Z,99779.59
2023-04-09T10:03:12.101Z,99766.59
2023-04-09T10:06:01.355Z,99776.13
2023-04-09T10:08:49.401Z,99796.03
2023-04-09T10:11:37.838Z,99805.59
2023-04-09T10:14:26.038Z,99758.81
2023-04-09T10:17:12.459Z,99796.94
2023-04-09T10:20:12.771Z,99790.81
2023-04-09T10:23:06.349Z,99761.41
2023-04-09T10:25:53.706Z,99782.19
2023-04-09T10:28:40.835Z,99771.78
2023-04-09T10:31:27.342Z,99799.47
2023-04-09T10:34:18.922Z,99742.16
2023-04-09T10:37:09.598Z,99790.56
2023-04-09T10:39:57.938Z,99754.19
2023-04-09T10:42:46.815Z,99759.53
2023-04-09T10:45:41.637Z,99750.88
2023-04-09T10:48:33.049Z,99774.94
2023-04-09T10:51:19.596Z,99767.97
2023-04-09T10:54:06.762Z,99735.38
2023-04-09T10:57:08.106Z,99776.09
2023-04-09T10:59:55.519Z,99736.19
2023-04-09T11:02:59.555Z,99740.34
2023-04-09T11:05:51.135Z,99766.22
2023-04-09T11:08:38.591Z,99758.47
2023-04-09T11:11:28.250Z,99733.03
2023-04-09T11:14:20.393Z,99760.50
2023-04-09T11:17:07.052Z,99746.63
2023-04-09T11:19:53.507Z,99728.75
2023-04-09T11:22:39.811Z,99755.88
2023-04-09T11:25:31.315Z,99744.81
2023-04-09T11:28:18.643Z,99763.69
2023-04-09T11:31:05.845Z,99750.47
2023-04-09T11:33:52.194Z,99727.78
2023-04-09T11:36:38.450Z,99764.00
2023-04-09T11:39:26.359Z,99733.16
2023-04-09T11:42:16.083Z,99756.63
2023-04-09T11:45:03.481Z,99738.56
2023-04-09T11:47:49.986Z,99749.94
2023-04-09T11:50:37.480Z,99729.28
2023-04-09T11:53:24.476Z,99740.56
2023-04-09T11:56:11.270Z,99744.00
2023-04-09T11:58:57.906Z,99738.00
2023-04-09T12:01:49.828Z,99745.81
2023-04-09T12:04:36.314Z,99755.31
2023-04-09T12:07:22.934Z,99739.69
2023-04-09T12:10:10.446Z,99756.06
2023-04-09T12:13:10.194Z,99733.47
2023-04-09T12:15:58.069Z,99747.19
2023-04-09T12:18:47.573Z,99733.16
2023-04-09T12:21:52.963Z,99745.03
2023-04-09T12:24:39.159Z,99733.09
2023-04-09T12:27:25.980Z,99746.41
2023-04-09T12:30:12.393Z,99749.03
2023-04-09T12:32:59.286Z,99726.66
2023-04-09T12:35:46.227Z,99741.66
2023-04-09T12:38:32.815Z,99718.50
2023-04-09T12:41:19.425Z,99719.41
2023-04-09T12:44:07.256Z,99705.78
2023-04-09T12:46:53.634Z,99700.31
2023-04-09T12:49:42.211Z,99684.78
2023-04-09T12:52:28.868Z,99712.38
2023-04-09T12:55:15.631Z,99721.94
2023-04-09T12:58:02.511Z,99693.31
2023-04-09T13:00:49.674Z,99712.38
2023-04-09T13:03:36.218Z,99688.06
2023-04-09T13:06:22.927Z,99694.41
2023-04-09T13:09:09.145Z,99671.81
2023-04-09T13:11:56.041Z,99690.84
2023-04-09T13:14:44.984Z,99685.47
2023-04-09T13:17:31.583Z,99648.22
2023-04-09T13:20:18.109Z,99689.25
2023-04-09T13:23:04.515Z,99696.53
2023-04-09T13:25:50.928Z,99698.25
2023-04-09T13:28:37.069Z,99688.31
2023-04-09T13:31:23.503Z,99665.94
2023-04-09T13:34:10.011Z,99643.34
2023-04-09T13:36:56.700Z,99622.09
2023-04-09T13:39:44.718Z,99653.63
2023-04-09T13:42:31.434Z,99661.53
2023-04-09T13:45:20.267Z,99663.66
2023-04-09T13:48:07.348Z,99670.38
2023-04-09T13:50:53.764Z,99627.94
2023-04-09T13:53:39.979Z,99654.16
2023-04-09T13:56:27.387Z,99631.03
2023-04-09T13:59:13.667Z,99649.53
2023-04-09T14:02:00.440Z,99647.16
2023-04-09T14:04:47.096Z,99625.16
2023-04-09T14:07:33.446Z,99651.53
2023-04-09T14:10:19.677Z,99643.97
2023-04-09T14:13:07.362Z,99623.69
2023-04-09T14:15:53.802Z,99642.56
2023-04-09T14:18:40.232Z,99630.59
2023-04-09T14:21:26.932Z,99634.97
2023-04-09T14:24:13.671Z,99614.19
2023-04-09T14:27:00.047Z,99618.03
2023-04-09T14:29:46.334Z,99631.78
2023-04-09T14:32:32.628Z,99624.16
2023-04-09T14:35:18.885Z,99614.50
2023-04-09T14:38:05.124Z,99588.19
2023-04-09T14:40:51.563Z,99615.47
2023-04-09T14:43:38.070Z,99624.72
2023-04-09T14:46:24.479Z,99624.03
2023-04-09T14:49:11.064Z,99598.63
2023-04-09T14:51:58.392Z,99578.88
2023-04-09T14:54:45.526Z,99614.72
2023-04-09T14:57:32.819Z,99620.06
2023-04-09T15:00:19.650Z,99595.94
2023-04-09T15:03:06.908Z,99586.47
2023-04-09T15:05:53.381Z,99584.59
2023-04-09T15:08:39.529Z,99569.50
2023-04-09T15:11:27.825Z,99592.66
2023-04-09T15:14:14.317Z,99611.38
2023-04-09T15:17:00.724Z,99604.91
2023-04-09T15:19:47.111Z,99603.81
2023-04-09T15:22:33.555Z,99592.56
2023-04-09T15:25:20.017Z,99564.09
2023-04-09T15:28:06.784Z,99600.09
2023-04-09T15:30:54.882Z,99577.78
2023-04-09T15:33:45.445Z,99575.25
2023-04-09T15:36:32.388Z,99575.41
2023-04-09T15:39:19.110Z,99556.75
2023-04-09T15:42:07.953Z,99607.91
2023-04-09T15:44:56.177Z,99594.31
2023-04-09T15:47:44.390Z,99603.16
2023-04-09T15:50:31.063Z,99595.41
2023-04-09T15:53:17.318Z,99596.22
2023-04-09T15:56:04.190Z,99584.19
2023-04-09T15:58:51.113Z,99563.34
2023-04-09T16:01:38.091Z,99597.00
2023-04-09T16:04:24.471Z,99593.41
2023-04-09T16:07:11.025Z,99596.88
2023-04-09T16:09:57.768Z,99599.59
2023-04-09T16:12:43.929Z,99599.38
2023-04-09T16:15:31.018Z,99582.09
2023-04-09T16:18:18.340Z,99606.25
2023-04-09T16:21:05.708Z,99558.78
2023-04-09T16:23:52.199Z,99599.47
2023-04-09T16:26:46.032Z,99585.75
2023-04-09T16:29:32.256Z,99540.88
2023-04-09T16:32:18.624Z,99590.97
2023-04-09T16:35:05.454Z,99553.84
2023-04-09T16:37:52.313Z,99599.78
2023-04-09T16:40:39.955Z,99594.63
2023-04-09T16:43:26.108Z,99573.00
2023-04-09T16:46:12.322Z,99592.00
2023-04-09T16:48:58.568Z,99548.84
2023-04-09T16:51:46.025Z,99593.81
2023-04-09T16:54:32.297Z,99556.69
2023-04-09T16:57:18.411Z,99592.09
2023-04-09T17:00:06.444Z,99599.09
2023-04-09T17:02:53.204Z,99587.84
2023-04-09T17:05:40.043Z,99600.91
2023-04-09T17:08:26.425Z,99556.03
2023-04-09T17:11:17.047Z,99570.75
2023-04-09T17:14:03.356Z,99577.75
2023-04-09T17:16:52.819Z,99600.25
2023-04-09T17:19:39.939Z,99595.09
2023-04-09T17:22:27.715Z,99597.69
2023-04-09T17:25:14.123Z,99569.22
2023-04-09T17:28:01.569Z,99577.88
2023-04-09T17:30:48.312Z,99595.19
2023-04-09T17:33:34.689Z,99596.94
2023-04-09T17:36:21.347Z,99596.06
2023-04-09T17:39:07.806Z,99565.75
2023-04-09T17:41:56.419Z,99588.19
2023-04-09T17:44:43.760Z,99584.69
2023-04-09T17:47:30.139Z,99562.16
2023-04-09T17:50:16.904Z,99620.06
2023-04-09T17:53:03.056Z,99614.75
2023-04-09T17:55:50.874Z,99587.75
2023-04-09T17:58:37.004Z,99597.16
2023-04-09T18:01:23.571Z,99596.97
2023-04-09T18:04:11.256Z,99601.97
2023-04-09T18:06:58.161Z,99616.50
2023-04-09T18:09:52.313Z,99564.31
2023-04-09T18:12:39.153Z,99613.47
2023-04-09T18:15:27.174Z,99608.91
2023-04-09T18:18:14.207Z,99645.09
2023-04-09T18:21:00.545Z,99639.75
2023-04-09T18:23:47.761Z,99647.28
2023-04-09T18:26:34.112Z,99607.97
2023-04-09T18:29:21.074Z,99663.19
2023-04-09T18:32:07.957Z,99664.72
2023-04-09T18:34:56.230Z,99668.00
2023-04-09T18:37:43.821Z,99641.00
2023-04-09T18:40:30.904Z,99655.56
2023-04-09T18:43:17.366Z,99651.94
2023-04-09T18:46:04.247Z,99657.88
2023-04-09T18:48:51.586Z,99644.75
2023-04-09T18:51:38.301Z,99628.19
2023-04-09T18:54:25.579Z,99638.53
2023-04-09T18:57:12.250Z,99640.09
2023-04-09T18:59:58.625Z,99616.44
2023-04-09T19:02:44.972Z,99671.00
2023-04-09T19:05:32.899Z,99678.69
2023-04-09T19:08:19.132Z,99667.88
2023-04-09T19:11:06.430Z,99640.81
2023-04-09T19:13:53.149Z,99696.97
2023-04-09T19:16:40.018Z,99693.34
2023-04-09T19:19:27.453Z,99684.47
2023-04-09T19:22:13.874Z,99639.91
2023-04-09T19:25:00.453Z,99650.91
2023-04-09T19:27:46.826Z,99690.75
2023-04-09T19:30:33.073Z,99689.69
2023-04-09T19:33:24.331Z,99672.03
2023-04-09T19:36:12.397Z,99677.00
2023-04-09T19:38:59.763Z,99682.84
2023-04-09T19:41:46.212Z,99680.09
2023-04-09T19:44:32.454Z,99690.25
2023-04-09T19:47:18.677Z,99689.28
2023-04-09T19:50:05.361Z,99671.81
2023-04-09T19:52:55.789Z,99688.25
2023-04-09T19:55:42.392Z,99710.16
2023-04-09T19:58:28.868Z,99707.19
2023-04-09T20:01:16.894Z,99707.00
2023-04-09T20:04:03.983Z,99704.16
2023-04-09T20:06:51.845Z,99685.78
2023-04-09T20:09:41.364Z,99707.16
2023-04-09T20:12:29.645Z,99720.84
2023-04-09T20:15:22.523Z,99711.03
2023-04-09T20:18:09.077Z,99716.53
2023-04-09T20:20:55.673Z,99704.03
2023-04-09T20:23:41.943Z,99696.13
2023-04-09T20:26:28.610Z,99663.16
2023-04-09T20:29:15.144Z,99703.88
2023-04-09T20:32:03.173Z,99713.09
2023-04-09T20:34:49.645Z,99708.50
2023-04-09T20:37:36.053Z,99677.63
2023-04-09T20:40:22.509Z,99718.28
2023-04-09T20:43:08.888Z,99727.97
2023-04-09T20:45:55.388Z,99713.66
2023-04-09T20:48:41.867Z,99676.00
2023-04-09T20:51:28.454Z,99704.66
2023-04-09T20:54:17.870Z,99704.53
2023-04-09T20:57:05.587Z,99686.81
2023-04-09T20:59:53.663Z,99696.31
2023-04-09T21:02:40.936Z,99719.38
2023-04-09T21:05:27.526Z,99703.59
2023-04-09T21:08:15.398Z,99694.53
2023-04-09T21:11:02.485Z,99711.13
2023-04-09T21:13:54.694Z,99683.88
2023-04-09T21:16:42.000Z,99703.72
2023-04-09T21:19:28.172Z,99699.13
2023-04-09T21:22:14.825Z,99691.91
2023-04-09T21:25:02.970Z,99692.69
2023-04-09T21:27:49.319Z,99668.88
2023-04-09T21:30:37.490Z,99697.22
2023-04-09T21:33:23.901Z,99692.59
2023-04-09T21:36:10.379Z,99666.34
2023-04-09T21:38:57.510Z,99677.44
2023-04-09T21:41:44.056Z,99702.19
2023-04-09T21:44:30.520Z,99675.22
2023-04-09T21:47:17.041Z,99699.34
2023-04-09T21:50:04.888Z,99696.63
2023-04-09T21:52:51.059Z,99642.22
2023-04-09T21:55:37.636Z,99635.16
2023-04-09T21:58:24.238Z,99679.53
2023-04-09T22:01:19.206Z,99702.84
2023-04-09T22:04:15.035Z,99665.84
2023-04-09T22:07:02.885Z,99702.44
2023-04-09T22:09:49.274Z,99676.09
2023-04-09T22:12:37.129Z,99628.94
2023-04-09T22:15:23.795Z,99694.47
2023-04-09T22:18:10.264Z,99667.56
2023-04-09T22:20:56.756Z,99685.41
2023-04-09T22:23:43.781Z,99655.91
2023-04-09T22:26:31.565Z,99685.63
2023-04-09T22:29:18.193Z,99655.66
2023-04-09T22:32:04.345Z,99678.53
2023-04-09T22:34:50.592Z,99696.41
2023-04-09T22:37:37.505Z,99679.63
2023-04-09T22:40:24.130Z,99677.69
2023-04-09T22:43:10.342Z,99676.81
2023-04-09T22:45:57.297Z,99667.72
2023-04-09T22:48:45.212Z,99675.56
2023-04-09T22:51:34.588Z,99662.47
2023-04-09T22:54:22.069Z,99678.94
2023-04-09T22:57:08.428Z,99645.75
2023-04-09T22:59:54.677Z,99636.94
2023-04-09T23:02:41.528Z,99644.63
2023-04-09T23:05:28.105Z,99667.22
2023-04-09T23:08:14.873Z,99685.53
2023-04-09T23:11:01.525Z,99687.94
2023-04-09T23:13:47.713Z,99691.00
2023-04-09T23:16:34.171Z,99691.00
2023-04-09T23:19:21.002Z,99653.13
2023-04-09T23:22:07.336Z,99695.84
2023-04-09T23:24:53.670Z,99679.56
2023-04-09T23:27:40.315Z,99697.53
2023-04-09T23:30:27.096Z,99689.78
2023-04-09T23:33:13.763Z,99658.38
2023-04-09T23:36:00.336Z,99694.66
2023-04-09T23:38:47.356Z,99677.00
2023-04-09T23:41:33.867Z,99692.28
2023-04-09T23:44:20.461Z,99690.25
2023-04-09T23:47:06.674Z,99679.38
2023-04-09T23:49:53.002Z,99698.97
2023-04-09T23:52:39.767Z,99699.56
2023-04-09T23:55:27.163Z,99662.75
2023-04-09T23:58:13.850Z,99693.25
